Time;durP1;ratioP1;P1;durP2;ratioP2;P2;SDS_P1;SDS_P2;PMS_P1;PMS_P2;Temp;Humidity;BMP_temperature;BMP_pressure;BME280_temperature;BME280_humidity;BME280_pressure;Samples;Min_cycle;Max_cycle;Signal;HPM_P1;HPM_P2
2023/04/06 00:00:22;;;;;;;10.45;6.88;;;;;;;;;;5032391;28;20656;-67
2023/04/06 00:02:48;;;;;;;7.85;7.25;;;;;;;;;;5032693;28;20196;-68
2023/04/06 00:05:14;;;;;;;8.20;7.50;;;;;;;;;;5032416;28;20181;-68
2023/04/06 00:07:40;;;;;;;8.63;7.82;;;;;;;;;;5032623;28;20415;-68
2023/04/06 00:10:09;;;;;;;8.90;8.00;;;;;;;;;;5032318;28;20695;-68
2023/04/06 00:12:40;;;;;;;11.60;7.25;;;;;;;;;;5032484;28;20467;-68
2023/04/06 00:15:06;;;;;;;8.07;7.32;;;;;;;;;;5032201;28;20211;-68
2023/04/06 00:17:32;;;;;;;8.75;7.65;;;;;;;;;;5032586;28;20603;-68
2023/04/06 00:19:58;;;;;;;8.50;7.70;;;;;;;;;;5032474;28;20216;-68
2023/04/06 00:22:24;;;;;;;8.80;7.70;;;;;;;;;;5032694;28;20411;-68
2023/04/06 00:24:50;;;;;;;12.20;8.93;;;;;;;;;;5032245;28;20840;-67
2023/04/06 00:27:19;;;;;;;15.13;9.20;;;;;;;;;;5032496;28;20180;-68
2023/04/06 00:29:45;;;;;;;9.07;8.27;;;;;;;;;;5032195;28;20898;-67
2023/04/06 00:32:11;;;;;;;11.38;8.52;;;;;;;;;;5032133;28;20741;-67
2023/04/06 00:34:37;;;;;;;10.77;8.63;;;;;;;;;;5032055;28;20177;-67
2023/04/06 00:37:03;;;;;;;9.52;8.65;;;;;;;;;;5031979;28;20197;-67
2023/04/06 00:39:29;;;;;;;8.97;8.03;;;;;;;;;;5032262;28;20183;-67
2023/04/06 00:41:56;;;;;;;9.23;8.10;;;;;;;;;;5031691;28;20408;-68
2023/04/06 00:44:22;;;;;;;8.55;7.38;;;;;;;;;;5032581;28;20169;-68
2023/04/06 00:46:48;;;;;;;10.65;8.35;;;;;;;;;;5031879;28;20211;-67
2023/04/06 00:49:17;;;;;;;9.23;8.13;;;;;;;;;;5032230;28;20180;-68
2023/04/06 00:51:43;;;;;;;10.85;8.05;;;;;;;;;;5032037;28;20177;-67
2023/04/06 00:54:09;;;;;;;8.93;8.00;;;;;;;;;;5032077;28;20465;-68
2023/04/06 00:56:35;;;;;;;9.43;8.38;;;;;;;;;;5031936;28;20177;-67
2023/04/06 00:59:01;;;;;;;7.78;7.20;;;;;;;;;;5031606;28;20197;-67
2023/04/06 01:01:28;;;;;;;10.15;7.85;;;;;;;;;;5031945;28;20228;-67
2023/04/06 01:03:55;;;;;;;8.35;7.65;;;;;;;;;;5031576;28;20694;-67
2023/04/06 01:06:21;;;;;;;8.65;7.85;;;;;;;;;;5031986;28;20164;-67
2023/04/06 01:08:50;;;;;;;9.90;7.88;;;;;;;;;;5031615;28;20184;-68
2023/04/06 01:11:16;;;;;;;10.15;8.07;;;;;;;;;;5031706;28;20181;-67
2023/04/06 01:13:42;;;;;;;9.02;7.90;;;;;;;;;;5031583;28;20254;-68
2023/04/06 01:16:10;;;;;;;10.57;7.72;;;;;;;;;;5031548;28;20180;-67
2023/04/06 01:18:38;;;;;;;8.65;7.85;;;;;;;;;;5031886;28;20235;-68
2023/04/06 01:21:04;;;;;;;9.02;7.93;;;;;;;;;;5031758;28;20177;-68
2023/04/06 01:23:32;;;;;;;8.32;7.45;;;;;;;;;;5031529;28;20181;-67
2023/04/06 01:25:58;;;;;;;8.55;7.75;;;;;;;;;;5031579;28;20238;-67
2023/04/06 01:28:27;;;;;;;10.60;8.30;;;;;;;;;;5013909;28;20231;-67
2023/04/06 01:30:58;;;;;;;9.63;7.75;;;;;;;;;;5031729;28;20396;-67
2023/04/06 01:33:24;;;;;;;8.73;7.90;;;;;;;;;;5031556;28;20586;-67
2023/04/06 01:35:50;;;;;;;7.75;7.05;;;;;;;;;;5031743;28;20181;-67
2023/04/06 01:38:16;;;;;;;8.60;7.72;;;;;;;;;;5031515;28;20220;-67
2023/04/06 01:40:42;;;;;;;7.47;6.95;;;;;;;;;;5031653;28;20266;-68
2023/04/06 01:43:08;;;;;;;9.33;8.13;;;;;;;;;;5031731;28;20266;-68
2023/04/06 01:45:34;;;;;;;8.37;7.67;;;;;;;;;;5031939;28;20418;-68
2023/04/06 01:48:02;;;;;;;6.87;6.37;;;;;;;;;;5031582;28;20431;-68
2023/04/06 01:50:28;;;;;;;7.57;6.85;;;;;;;;;;5031474;28;20416;-67
2023/04/06 01:52:54;;;;;;;7.05;6.45;;;;;;;;;;5031307;28;20201;-67
2023/04/06 01:55:21;;;;;;;8.40;7.55;;;;;;;;;;5034617;28;20679;-67
2023/04/06 01:57:46;;;;;;;7.60;6.90;;;;;;;;;;5035388;28;20189;-68
2023/04/06 02:00:13;;;;;;;9.03;8.10;;;;;;;;;;5034832;28;20227;-68
2023/04/06 02:02:39;;;;;;;7.40;6.70;;;;;;;;;;5035280;28;20420;-68
2023/04/06 02:05:05;;;;;;;7.60;6.95;;;;;;;;;;5035396;28;20252;-68
2023/04/06 02:07:36;;;;;;;8.27;7.15;;;;;;;;;;5017614;28;20173;-68
2023/04/06 02:10:02;;;;;;;7.75;7.05;;;;;;;;;;5034939;28;20196;-68
2023/04/06 02:12:28;;;;;;;7.50;6.90;;;;;;;;;;5034724;28;20208;-68
2023/04/06 02:14:54;;;;;;;9.57;6.30;;;;;;;;;;5035010;28;20196;-68
2023/04/06 02:17:20;;;;;;;7.22;6.68;;;;;;;;;;5034973;28;20463;-67
2023/04/06 02:19:46;;;;;;;7.27;6.67;;;;;;;;;;5034839;28;20217;-67
2023/04/06 02:22:12;;;;;;;12.55;7.05;;;;;;;;;;5034852;28;20531;-67
2023/04/06 02:24:38;;;;;;;10.02;7.82;;;;;;;;;;5034546;28;20173;-68
2023/04/06 02:27:07;;;;;;;9.15;7.40;;;;;;;;;;5034740;28;20181;-68
2023/04/06 02:29:33;;;;;;;6.63;6.22;;;;;;;;;;5034495;28;20169;-68
2023/04/06 02:32:01;;;;;;;10.13;7.40;;;;;;;;;;5034105;28;20184;-68
2023/04/06 02:34:27;;;;;;;9.68;7.55;;;;;;;;;;5034398;28;20400;-68
2023/04/06 02:36:53;;;;;;;8.73;7.85;;;;;;;;;;5034282;28;20213;-68
2023/04/06 02:39:19;;;;;;;15.00;8.80;;;;;;;;;;5034443;28;20231;-68
2023/04/06 02:41:45;;;;;;;12.18;8.52;;;;;;;;;;5016158;28;20935;-68
2023/04/06 02:44:11;;;;;;;9.90;8.90;;;;;;;;;;5034065;28;20200;-68
2023/04/06 02:46:37;;;;;;;10.43;8.13;;;;;;;;;;5034312;28;20412;-67
2023/04/06 02:49:06;;;;;;;8.90;8.10;;;;;;;;;;5034718;28;20227;-67
2023/04/06 02:51:34;;;;;;;9.07;8.13;;;;;;;;;;5033982;28;20831;-67
2023/04/06 02:54:02;;;;;;;8.63;7.68;;;;;;;;;;5033741;28;20283;-67
2023/04/06 02:56:29;;;;;;;10.93;8.55;;;;;;;;;;5034013;28;20251;-63
2023/04/06 02:58:55;;;;;;;11.00;8.95;;;;;;;;;;5034122;28;20196;-62
2023/04/06 03:01:21;;;;;;;7.68;6.90;;;;;;;;;;5033688;28;20267;-64
2023/04/06 03:03:47;;;;;;;8.50;7.80;;;;;;;;;;5033797;28;20185;-63
2023/04/06 03:06:13;;;;;;;8.93;7.50;;;;;;;;;;5033103;28;20185;-62
2023/04/06 03:08:39;;;;;;;7.28;6.57;;;;;;;;;;5033718;28;20436;-63
2023/04/06 03:11:05;;;;;;;10.50;7.38;;;;;;;;;;5033965;28;20188;-62
2023/04/06 03:13:33;;;;;;;8.90;8.00;;;;;;;;;;5033473;28;20204;-62
2023/04/06 03:15:59;;;;;;;7.88;6.90;;;;;;;;;;5015901;28;20272;-63
2023/04/06 03:18:26;;;;;;;7.45;6.78;;;;;;;;;;5033715;28;20731;-62
2023/04/06 03:20:55;;;;;;;11.85;7.72;;;;;;;;;;5033738;28;20247;-62
2023/04/06 03:23:21;;;;;;;8.30;7.45;;;;;;;;;;5033758;28;20211;-62
2023/04/06 03:25:50;;;;;;;8.00;7.30;;;;;;;;;;5033763;28;20177;-62
2023/04/06 03:28:16;;;;;;;10.55;8.43;;;;;;;;;;5033736;28;20181;-63
2023/04/06 03:30:42;;;;;;;9.57;7.63;;;;;;;;;;5033526;28;20177;-63
2023/04/06 03:33:08;;;;;;;7.40;6.80;;;;;;;;;;5033600;28;20458;-62
2023/04/06 03:35:34;;;;;;;7.53;6.83;;;;;;;;;;5033414;28;20686;-62
2023/04/06 03:38:00;;;;;;;6.47;5.97;;;;;;;;;;5033555;28;20400;-63
2023/04/06 03:40:26;;;;;;;8.40;6.68;;;;;;;;;;5033199;28;20672;-62
2023/04/06 03:42:54;;;;;;;6.90;6.30;;;;;;;;;;5033526;28;20204;-62
2023/04/06 03:45:20;;;;;;;7.22;6.60;;;;;;;;;;5033341;28;20403;-62
2023/04/06 03:47:46;;;;;;;7.03;6.28;;;;;;;;;;5033430;28;20264;-62
2023/04/06 03:50:17;;;;;;;7.50;6.80;;;;;;;;;;5033151;28;20716;-63
2023/04/06 03:52:43;;;;;;;6.60;6.30;;;;;;;;;;5033048;28;20254;-63
2023/04/06 03:55:09;;;;;;;9.00;7.43;;;;;;;;;;5033192;28;20173;-62
2023/04/06 03:57:37;;;;;;;11.60;7.65;;;;;;;;;;5033084;28;20427;-63
2023/04/06 04:00:04;;;;;;;7.32;6.72;;;;;;;;;;5032685;28;20551;-62
2023/04/06 04:02:30;;;;;;;8.23;7.53;;;;;;;;;;5032970;28;20220;-62
2023/04/06 04:04:56;;;;;;;9.70;7.20;;;;;;;;;;5032960;28;20183;-63
2023/04/06 04:07:22;;;;;;;7.70;7.00;;;;;;;;;;5032972;28;20424;-63
2023/04/06 04:09:51;;;;;;;7.82;7.13;;;;;;;;;;5032854;28;20475;-63
2023/04/06 04:12:17;;;;;;;7.63;6.93;;;;;;;;;;5032827;28;20184;-64
2023/04/06 04:14:43;;;;;;;8.90;7.83;;;;;;;;;;5032586;28;20197;-63
2023/04/06 04:17:09;;;;;;;6.78;6.28;;;;;;;;;;5031853;28;20503;-62
2023/04/06 04:19:36;;;;;;;8.07;7.47;;;;;;;;;;5032561;28;20562;-63
2023/04/06 04:22:04;;;;;;;11.05;8.15;;;;;;;;;;5032412;28;20231;-66
2023/04/06 04:24:31;;;;;;;9.77;8.77;;;;;;;;;;5032367;28;20172;-65
2023/04/06 04:27:00;;;;;;;9.70;8.80;;;;;;;;;;5032731;28;20181;-64
2023/04/06 04:29:26;;;;;;;12.48;9.65;;;;;;;;;;5032415;28;20173;-62
2023/04/06 04:31:52;;;;;;;12.33;9.07;;;;;;;;;;5032418;28;20689;-62
2023/04/06 04:34:24;;;;;;;14.23;11.50;;;;;;;;;;5032380;28;20463;-62
2023/04/06 04:36:50;;;;;;;16.92;11.43;;;;;;;;;;5032773;28;20443;-63
2023/04/06 04:39:16;;;;;;;18.67;13.45;;;;;;;;;;5032308;28;20169;-63
2023/04/06 04:41:46;;;;;;;14.03;11.50;;;;;;;;;;5032044;28;20172;-63
2023/04/06 04:44:11;;;;;;;17.20;10.05;;;;;;;;;;5031939;28;20506;-63
2023/04/06 04:46:37;;;;;;;14.70;11.40;;;;;;;;;;5031732;28;20215;-63
2023/04/06 04:49:03;;;;;;;18.40;11.80;;;;;;;;;;5032090;28;20768;-62
2023/04/06 04:51:31;;;;;;;34.77;18.70;;;;;;;;;;5032028;28;20432;-63
2023/04/06 04:53:57;;;;;;;33.03;17.10;;;;;;;;;;5031744;28;20489;-63
2023/04/06 04:56:23;;;;;;;42.35;19.42;;;;;;;;;;5031558;28;20165;-62
2023/04/06 04:58:49;;;;;;;30.60;17.27;;;;;;;;;;5031861;28;20611;-64
2023/04/06 05:01:15;;;;;;;26.58;16.58;;;;;;;;;;5032208;28;20449;-62
2023/04/06 05:03:43;;;;;;;28.98;18.02;;;;;;;;;;5031702;28;21897;-64
2023/04/06 05:06:09;;;;;;;26.00;16.02;;;;;;;;;;5031868;28;20188;-63
2023/04/06 05:08:35;;;;;;;24.83;15.20;;;;;;;;;;5030884;28;20964;-63
2023/04/06 05:11:01;;;;;;;19.25;13.43;;;;;;;;;;5031473;28;20173;-63
2023/04/06 05:13:27;;;;;;;19.33;12.93;;;;;;;;;;5031906;28;20250;-62
2023/04/06 05:15:53;;;;;;;19.38;12.30;;;;;;;;;;5013683;28;20201;-62
2023/04/06 05:18:20;;;;;;;23.92;13.15;;;;;;;;;;5031626;28;20226;-63
2023/04/06 05:20:46;;;;;;;13.60;11.82;;;;;;;;;;5031568;28;20203;-63
2023/04/06 05:23:12;;;;;;;12.70;10.15;;;;;;;;;;5031645;28;20192;-63
2023/04/06 05:25:40;;;;;;;10.20;9.20;;;;;;;;;;5031276;28;20230;-62
2023/04/06 05:28:06;;;;;;;9.65;8.73;;;;;;;;;;5033123;28;20181;-62
2023/04/06 05:30:32;;;;;;;13.40;9.32;;;;;;;;;;5035848;28;20647;-62
2023/04/06 05:33:01;;;;;;;8.27;7.60;;;;;;;;;;5035523;28;20576;-62
2023/04/06 05:35:27;;;;;;;8.15;7.35;;;;;;;;;;5035776;28;20173;-63
2023/04/06 05:37:53;;;;;;;8.80;7.90;;;;;;;;;;5035390;28;20223;-61
2023/04/06 05:40:21;;;;;;;8.02;7.28;;;;;;;;;;5035318;28;20415;-61
2023/04/06 05:42:49;;;;;;;7.38;6.78;;;;;;;;;;5035268;28;20201;-62
2023/04/06 05:45:18;;;;;;;7.53;6.85;;;;;;;;;;5035537;28;20177;-63
2023/04/06 05:47:44;;;;;;;18.85;10.13;;;;;;;;;;5035140;28;20212;-61
2023/04/06 05:50:15;;;;;;;40.58;24.83;;;;;;;;;;5035021;28;20227;-65
2023/04/06 05:52:46;;;;;;;56.40;24.33;;;;;;;;;;5035151;28;20266;-62
2023/04/06 05:55:12;;;;;;;37.65;18.23;;;;;;;;;;5034224;28;20196;-65
2023/04/06 05:57:45;;;;;;;142.40;50.80;;;;;;;;;;5017921;28;20173;-65
2023/04/06 06:00:14;;;;;;;128.75;47.45;;;;;;;;;;5035112;28;20284;-63
2023/04/06 06:02:42;;;;;;;92.95;37.03;;;;;;;;;;5017609;28;20177;-63
2023/04/06 06:05:08;;;;;;;67.07;30.45;;;;;;;;;;5034980;28;20205;-63
2023/04/06 06:07:34;;;;;;;138.05;49.22;;;;;;;;;;5035467;28;20216;-63
2023/04/06 06:10:00;;;;;;;208.95;75.82;;;;;;;;;;5034756;28;20184;-61
2023/04/06 06:12:26;;;;;;;191.60;72.82;;;;;;;;;;5035472;28;20227;-61
2023/04/06 06:14:52;;;;;;;127.32;47.70;;;;;;;;;;5034636;28;20258;-63
2023/04/06 06:17:18;;;;;;;117.47;45.75;;;;;;;;;;5034846;28;20170;-60
2023/04/06 06:19:44;;;;;;;72.15;31.40;;;;;;;;;;5034566;28;20246;-61
2023/04/06 06:22:10;;;;;;;39.83;21.95;;;;;;;;;;5034590;28;20751;-61
2023/04/06 06:24:36;;;;;;;32.65;17.88;;;;;;;;;;5034632;28;20201;-63
2023/04/06 06:27:03;;;;;;;22.08;14.18;;;;;;;;;;5034495;28;20177;-62
2023/04/06 06:29:29;;;;;;;15.52;11.68;;;;;;;;;;5034457;28;20250;-62
2023/04/06 06:31:55;;;;;;;50.72;32.88;;;;;;;;;;5034388;28;20180;-62
2023/04/06 06:34:21;;;;;;;18.60;14.67;;;;;;;;;;5034131;28;20204;-62
2023/04/06 06:36:47;;;;;;;8.10;7.30;;;;;;;;;;5034566;28;20428;-62
2023/04/06 06:39:13;;;;;;;8.80;8.10;;;;;;;;;;5034049;28;20231;-62
2023/04/06 06:41:40;;;;;;;8.27;6.60;;;;;;;;;;5016571;28;20189;-62
2023/04/06 06:44:08;;;;;;;9.88;8.13;;;;;;;;;;5034190;28;20439;-62
2023/04/06 06:46:34;;;;;;;9.13;8.30;;;;;;;;;;5034650;28;20185;-62
2023/04/06 06:49:00;;;;;;;8.85;8.02;;;;;;;;;;5034317;28;20633;-62
2023/04/06 06:51:26;;;;;;;8.25;7.22;;;;;;;;;;5034649;28;20181;-62
2023/04/06 06:53:52;;;;;;;7.60;7.05;;;;;;;;;;5035127;28;20663;-62
2023/04/06 06:56:18;;;;;;;7.93;7.23;;;;;;;;;;5034530;28;20181;-62
2023/04/06 06:58:44;;;;;;;6.60;6.20;;;;;;;;;;5034720;28;20400;-62
2023/04/06 07:01:11;;;;;;;8.48;6.40;;;;;;;;;;5034988;28;20316;-62
2023/04/06 07:03:37;;;;;;;8.07;7.38;;;;;;;;;;5034782;28;20173;-62
2023/04/06 07:06:03;;;;;;;9.17;8.07;;;;;;;;;;5034572;28;20189;-62
2023/04/06 07:08:29;;;;;;;8.68;7.78;;;;;;;;;;5034504;28;20398;-62
2023/04/06 07:10:58;;;;;;;7.50;6.93;;;;;;;;;;5034368;28;20209;-62
2023/04/06 07:13:26;;;;;;;6.78;6.18;;;;;;;;;;5000741;28;20255;-62
2023/04/06 07:15:52;;;;;;;6.82;6.43;;;;;;;;;;5034207;28;20197;-62
2023/04/06 07:18:19;;;;;;;6.13;5.82;;;;;;;;;;5034300;28;20548;-62
2023/04/06 07:20:45;;;;;;;7.95;6.55;;;;;;;;;;5034042;28;20288;-62
2023/04/06 07:23:11;;;;;;;14.27;12.13;;;;;;;;;;5034198;28;20256;-62
2023/04/06 07:25:37;;;;;;;12.83;11.53;;;;;;;;;;5016389;28;20448;-62
2023/04/06 07:28:03;;;;;;;8.40;7.65;;;;;;;;;;5034083;28;20394;-62
2023/04/06 07:30:30;;;;;;;8.00;6.88;;;;;;;;;;5034074;28;20173;-62
2023/04/06 07:32:56;;;;;;;7.10;6.38;;;;;;;;;;5034087;28;20193;-62
2023/04/06 07:35:24;;;;;;;6.03;5.63;;;;;;;;;;5033736;28;20207;-62
2023/04/06 07:37:50;;;;;;;9.18;6.30;;;;;;;;;;5033916;28;20432;-62
2023/04/06 07:40:16;;;;;;;7.50;6.10;;;;;;;;;;5033830;28;20647;-62
2023/04/06 07:42:42;;;;;;;7.43;6.13;;;;;;;;;;5033872;28;20774;-62
2023/04/06 07:45:08;;;;;;;7.63;6.23;;;;;;;;;;5033690;28;20441;-62
2023/04/06 07:47:34;;;;;;;7.73;7.00;;;;;;;;;;5033576;28;20390;-62
2023/04/06 07:50:00;;;;;;;6.93;6.30;;;;;;;;;;5033628;28;20408;-62
2023/04/06 07:52:26;;;;;;;5.83;5.53;;;;;;;;;;5032406;28;20511;-61
2023/04/06 07:54:52;;;;;;;6.47;5.87;;;;;;;;;;5033528;28;20487;-62
2023/04/06 07:57:19;;;;;;;7.77;7.17;;;;;;;;;;5033726;28;20984;-62
2023/04/06 07:59:45;;;;;;;7.30;6.53;;;;;;;;;;5033846;28;20774;-62
2023/04/06 08:02:11;;;;;;;6.93;6.47;;;;;;;;;;5034557;28;20444;-62
2023/04/06 08:04:37;;;;;;;6.83;6.40;;;;;;;;;;5033574;28;20408;-62
2023/04/06 08:07:03;;;;;;;6.67;6.10;;;;;;;;;;5034065;28;20378;-62
2023/04/06 08:09:29;;;;;;;7.80;7.10;;;;;;;;;;5033482;28;20434;-62
2023/04/06 08:11:55;;;;;;;7.07;6.47;;;;;;;;;;5033339;28;20412;-62
2023/04/06 08:14:23;;;;;;;7.13;6.50;;;;;;;;;;5033010;28;20470;-62
2023/04/06 08:16:49;;;;;;;6.73;6.30;;;;;;;;;;5033285;28;20428;-62
2023/04/06 08:19:17;;;;;;;6.77;6.20;;;;;;;;;;5032932;28;20416;-62
2023/04/06 08:21:43;;;;;;;6.03;5.63;;;;;;;;;;5033236;28;20408;-62
2023/04/06 08:24:09;;;;;;;7.00;6.40;;;;;;;;;;5015341;28;20412;-62
2023/04/06 08:26:35;;;;;;;7.57;6.77;;;;;;;;;;5032279;28;20412;-62
2023/04/06 08:29:04;;;;;;;6.20;5.80;;;;;;;;;;5032265;28;21056;-62
2023/04/06 08:31:30;;;;;;;8.83;8.10;;;;;;;;;;5032877;28;20439;-62
2023/04/06 08:33:56;;;;;;;6.33;5.73;;;;;;;;;;5032694;28;20467;-63
2023/04/06 08:36:22;;;;;;;6.90;6.30;;;;;;;;;;5014948;28;20883;-63
2023/04/06 08:38:49;;;;;;;6.43;6.03;;;;;;;;;;5032933;28;20396;-63
2023/04/06 08:41:17;;;;;;;6.77;6.17;;;;;;;;;;5032791;28;20482;-63
2023/04/06 08:43:43;;;;;;;6.40;5.83;;;;;;;;;;5032380;28;20450;-63
2023/04/06 08:46:10;;;;;;;11.77;5.90;;;;;;;;;;5032476;28;20891;-63
2023/04/06 08:48:39;;;;;;;9.50;5.50;;;;;;;;;;5032614;28;20447;-63
2023/04/06 08:51:05;;;;;;;15.50;5.70;;;;;;;;;;5032622;28;20447;-63
2023/04/06 08:53:31;;;;;;;6.40;5.90;;;;;;;;;;5014757;28;20463;-63
2023/04/06 08:55:58;;;;;;;8.03;5.97;;;;;;;;;;5014912;28;20471;-61
2023/04/06 08:58:24;;;;;;;6.17;5.67;;;;;;;;;;5032439;28;20788;-61
2023/04/06 09:00:51;;;;;;;7.63;6.50;;;;;;;;;;5032230;28;20472;-63
2023/04/06 09:03:17;;;;;;;11.20;6.27;;;;;;;;;;5032093;28;20945;-63
2023/04/06 09:05:44;;;;;;;6.80;6.40;;;;;;;;;;5032424;28;20442;-63
2023/04/06 09:08:10;;;;;;;7.20;6.60;;;;;;;;;;5032630;28;20428;-63
2023/04/06 09:10:36;;;;;;;8.10;6.93;;;;;;;;;;5032238;28;20411;-63
2023/04/06 09:13:06;;;;;;;7.53;6.33;;;;;;;;;;5031841;28;20632;-63
2023/04/06 09:15:32;;;;;;;7.17;6.47;;;;;;;;;;5032170;28;20442;-63
2023/04/06 09:18:00;;;;;;;7.63;6.70;;;;;;;;;;5032362;28;20404;-63
2023/04/06 09:20:28;;;;;;;9.13;6.97;;;;;;;;;;5032622;28;20419;-63
2023/04/06 09:22:54;;;;;;;6.37;5.97;;;;;;;;;;5032556;28;20396;-63
2023/04/06 09:25:22;;;;;;;9.50;7.43;;;;;;;;;;5032234;28;20956;-63
2023/04/06 09:27:59;;;;;;;7.80;7.10;;;;;;;;;;5032131;28;20568;-63
2023/04/06 09:30:26;;;;;;;8.20;7.27;;;;;;;;;;5032324;28;20436;-62
2023/04/06 09:32:53;;;;;;;7.93;7.20;;;;;;;;;;5032252;28;20541;-63
2023/04/06 09:35:20;;;;;;;7.37;6.73;;;;;;;;;;5032288;28;20438;-63
2023/04/06 09:37:47;;;;;;;8.23;6.97;;;;;;;;;;5032186;28;20404;-63
2023/04/06 09:40:17;;;;;;;7.03;6.50;;;;;;;;;;5032180;28;20895;-63
2023/04/06 09:42:45;;;;;;;7.87;7.17;;;;;;;;;;5032305;28;20474;-63
2023/04/06 09:45:11;;;;;;;6.40;6.00;;;;;;;;;;5031971;28;20412;-63
2023/04/06 09:47:39;;;;;;;8.27;6.97;;;;;;;;;;5031902;28;20407;-63
2023/04/06 09:50:06;;;;;;;8.33;7.17;;;;;;;;;;5032053;28;20965;-63
2023/04/06 09:52:40;;;;;;;8.50;6.83;;;;;;;;;;5031908;28;20459;-63
2023/04/06 09:55:07;;;;;;;8.57;7.10;;;;;;;;;;5031832;28;20466;-63
2023/04/06 09:57:57;;;;;;;7.53;6.83;;;;;;;;;;5031910;28;20395;-64
2023/04/06 10:00:23;;;;;;;8.23;7.43;;;;;;;;;;5021189;28;20794;-63
2023/04/06 10:02:57;;;;;;;8.13;7.20;;;;;;;;;;5031728;28;20616;-63
2023/04/06 10:05:30;;;;;;;7.80;7.10;;;;;;;;;;5014320;28;20419;-64
2023/04/06 10:07:57;;;;;;;8.77;7.70;;;;;;;;;;5031731;28;20970;-63
2023/04/06 10:10:24;;;;;;;8.47;7.10;;;;;;;;;;5031959;28;20416;-63
2023/04/06 10:12:50;;;;;;;8.53;7.20;;;;;;;;;;5031792;28;20467;-63
2023/04/06 10:15:16;;;;;;;8.67;7.77;;;;;;;;;;5033070;28;20418;-63
2023/04/06 10:17:42;;;;;;;7.87;6.97;;;;;;;;;;5035293;28;20446;-63
2023/04/06 10:20:08;;;;;;;14.63;9.03;;;;;;;;;;5035324;28;20493;-63
2023/04/06 10:22:42;;;;;;;13.30;11.73;;;;;;;;;;5035185;28;20551;-63
2023/04/06 10:25:10;;;;;;;13.03;8.00;;;;;;;;;;5035494;28;20939;-64
2023/04/06 10:27:36;;;;;;;15.63;7.63;;;;;;;;;;5035188;28;20411;-62
2023/04/06 10:30:06;;;;;;;11.40;8.27;;;;;;;;;;5034984;28;20422;-62
2023/04/06 10:32:38;;;;;;;13.60;8.00;;;;;;;;;;5035050;28;20441;-62
2023/04/06 10:35:11;;;;;;;8.13;7.43;;;;;;;;;;5035222;28;20420;-62
2023/04/06 10:37:53;;;;;;;8.87;8.00;;;;;;;;;;5017485;28;20488;-62
2023/04/06 10:40:26;;;;;;;10.20;7.50;;;;;;;;;;5034948;28;20491;-62
2023/04/06 10:42:53;;;;;;;8.50;7.80;;;;;;;;;;5034794;28;20784;-62
2023/04/06 10:45:26;;;;;;;9.37;8.43;;;;;;;;;;5034735;28;20435;-62
2023/04/06 10:47:55;;;;;;;7.47;6.97;;;;;;;;;;5034683;28;20495;-62
2023/04/06 10:50:24;;;;;;;8.57;7.80;;;;;;;;;;5034611;28;20434;-62
2023/04/06 10:53:00;;;;;;;10.07;7.67;;;;;;;;;;5034931;28;20463;-62
2023/04/06 10:55:27;;;;;;;6.80;6.10;;;;;;;;;;5034649;28;20424;-62
2023/04/06 10:57:54;;;;;;;5.93;5.53;;;;;;;;;;5034444;28;20830;-63
2023/04/06 11:00:20;;;;;;;6.93;6.33;;;;;;;;;;5033956;28;20950;-63
2023/04/06 11:02:46;;;;;;;9.33;7.87;;;;;;;;;;5033822;28;20834;-63
2023/04/06 11:05:13;;;;;;;12.50;8.40;;;;;;;;;;5033794;28;20428;-63
2023/04/06 11:07:41;;;;;;;8.00;7.40;;;;;;;;;;5033602;28;20436;-63
2023/04/06 11:10:08;;;;;;;8.27;7.50;;;;;;;;;;5034133;28;20876;-63
2023/04/06 11:12:37;;;;;;;8.67;7.60;;;;;;;;;;5015709;28;20422;-63
2023/04/06 11:15:09;;;;;;;10.23;6.40;;;;;;;;;;5033849;28;21033;-64
2023/04/06 11:17:36;;;;;;;7.90;7.07;;;;;;;;;;5033813;28;20444;-63
2023/04/06 11:20:04;;;;;;;11.43;6.53;;;;;;;;;;5033343;28;20413;-63
2023/04/06 11:22:31;;;;;;;9.30;7.70;;;;;;;;;;5015510;28;20803;-62
2023/04/06 11:25:06;;;;;;;7.43;6.40;;;;;;;;;;5033457;28;20491;-63
2023/04/06 11:27:35;;;;;;;11.70;6.80;;;;;;;;;;5033213;28;20433;-63
2023/04/06 11:30:04;;;;;;;7.03;6.43;;;;;;;;;;5033544;28;20462;-62
2023/04/06 11:32:32;;;;;;;9.57;6.80;;;;;;;;;;5033540;28;20428;-62
2023/04/06 11:34:59;;;;;;;7.33;6.70;;;;;;;;;;5033730;28;20427;-62
2023/04/06 11:37:30;;;;;;;7.30;6.57;;;;;;;;;;5033624;28;20496;-62
2023/04/06 11:39:57;;;;;;;9.10;6.37;;;;;;;;;;5033564;28;20423;-62
2023/04/06 11:42:29;;;;;;;9.10;8.20;;;;;;;;;;5033155;28;20980;-63
2023/04/06 11:44:59;;;;;;;7.10;6.40;;;;;;;;;;5033435;28;20414;-63
2023/04/06 11:47:31;;;;;;;6.80;6.30;;;;;;;;;;5033254;28;20415;-63
2023/04/06 11:50:05;;;;;;;6.73;6.23;;;;;;;;;;5033190;28;20447;-63
2023/04/06 11:52:33;;;;;;;8.70;7.23;;;;;;;;;;5032954;28;20497;-63
2023/04/06 11:54:59;;;;;;;7.17;6.67;;;;;;;;;;5015386;28;20937;-63
2023/04/06 11:57:25;;;;;;;10.77;7.07;;;;;;;;;;5032963;28;20436;-63
2023/04/06 11:59:53;;;;;;;6.97;6.43;;;;;;;;;;5033071;28;20426;-62
2023/04/06 12:02:19;;;;;;;6.87;6.27;;;;;;;;;;5032736;28;20425;-62
2023/04/06 12:04:46;;;;;;;7.33;6.30;;;;;;;;;;5033139;28;20801;-63
2023/04/06 12:07:12;;;;;;;6.97;6.37;;;;;;;;;;5033124;28;20423;-63
2023/04/06 12:09:40;;;;;;;7.10;6.60;;;;;;;;;;5015208;28;20424;-63
2023/04/06 12:12:11;;;;;;;6.93;6.23;;;;;;;;;;5033093;28;20439;-63
2023/04/06 12:14:37;;;;;;;7.97;7.10;;;;;;;;;;5033057;28;20494;-63
2023/04/06 12:17:03;;;;;;;7.47;6.87;;;;;;;;;;5033013;28;20415;-63
2023/04/06 12:19:29;;;;;;;7.70;7.00;;;;;;;;;;5032821;28;20407;-63
2023/04/06 12:21:56;;;;;;;6.17;5.77;;;;;;;;;;5032431;28;20431;-63
2023/04/06 12:24:22;;;;;;;6.60;6.10;;;;;;;;;;5032260;28;20480;-63
2023/04/06 12:26:48;;;;;;;6.23;5.63;;;;;;;;;;5032331;28;20412;-63
2023/04/06 12:29:17;;;;;;;6.30;5.80;;;;;;;;;;5032967;28;20430;-63
2023/04/06 12:31:44;;;;;;;7.37;6.07;;;;;;;;;;5032531;28;20835;-63
2023/04/06 12:34:10;;;;;;;12.40;6.60;;;;;;;;;;5015117;28;20498;-63
2023/04/06 12:36:37;;;;;;;6.60;6.00;;;;;;;;;;5014749;28;20439;-63
2023/04/06 12:39:03;;;;;;;6.43;5.93;;;;;;;;;;5032033;28;20959;-63
2023/04/06 12:41:30;;;;;;;6.33;5.93;;;;;;;;;;5032546;28;20846;-63
2023/04/06 12:43:56;;;;;;;6.33;5.83;;;;;;;;;;5032635;28;20408;-62
2023/04/06 12:46:24;;;;;;;6.60;6.00;;;;;;;;;;5032136;28;20438;-63
2023/04/06 12:48:53;;;;;;;6.20;5.77;;;;;;;;;;5032511;28;20446;-62
2023/04/06 12:51:22;;;;;;;5.90;5.40;;;;;;;;;;5032507;28;20786;-62
2023/04/06 12:53:48;;;;;;;7.53;5.97;;;;;;;;;;5032375;28;20474;-62
2023/04/06 12:56:18;;;;;;;5.60;5.20;;;;;;;;;;5032653;28;20468;-63
2023/04/06 12:58:46;;;;;;;6.97;6.37;;;;;;;;;;5032267;28;20864;-63
2023/04/06 13:01:15;;;;;;;9.73;6.30;;;;;;;;;;5032352;28;20454;-63
2023/04/06 13:03:41;;;;;;;5.40;5.00;;;;;;;;;;5032147;28;20909;-63
2023/04/06 13:06:10;;;;;;;6.10;5.17;;;;;;;;;;5032236;28;20446;-63
2023/04/06 13:08:37;;;;;;;5.50;5.03;;;;;;;;;;5032047;28;20415;-63
2023/04/06 13:11:04;;;;;;;7.50;5.93;;;;;;;;;;5032698;28;20437;-63
2023/04/06 13:13:32;;;;;;;5.50;5.10;;;;;;;;;;5032065;28;20502;-63
2023/04/06 13:16:03;;;;;;;5.57;5.27;;;;;;;;;;5032277;28;20414;-63
2023/04/06 13:18:29;;;;;;;6.50;5.80;;;;;;;;;;5031978;28;20441;-63
2023/04/06 13:20:57;;;;;;;5.13;4.80;;;;;;;;;;5032212;28;20500;-64
2023/04/06 13:23:24;;;;;;;6.10;5.33;;;;;;;;;;5032498;28;20414;-63
2023/04/06 13:26:00;;;;;;;5.10;4.80;;;;;;;;;;5032263;28;20862;-63
2023/04/06 13:28:26;;;;;;;8.20;7.40;;;;;;;;;;5032151;28;20442;-66
2023/04/06 13:30:54;;;;;;;9.20;7.50;;;;;;;;;;5032171;28;20465;-65
2023/04/06 13:33:20;;;;;;;6.17;5.60;;;;;;;;;;5031726;28;20475;-66
2023/04/06 13:35:47;;;;;;;6.87;6.27;;;;;;;;;;5032247;28;20489;-65
2023/04/06 13:38:13;;;;;;;6.50;5.90;;;;;;;;;;5014437;28;20509;-65
2023/04/06 13:40:40;;;;;;;6.77;6.17;;;;;;;;;;5031774;28;20506;-66
2023/04/06 13:43:06;;;;;;;7.20;5.70;;;;;;;;;;5032267;28;20950;-65
2023/04/06 13:45:34;;;;;;;5.77;5.27;;;;;;;;;;5032015;28;20482;-65
2023/04/06 13:48:00;;;;;;;5.87;5.47;;;;;;;;;;5014579;28;20439;-65
2023/04/06 13:50:27;;;;;;;5.97;5.47;;;;;;;;;;5035433;28;20493;-65
2023/04/06 13:52:53;;;;;;;9.53;5.97;;;;;;;;;;5035553;28;20468;-66
2023/04/06 13:55:21;;;;;;;5.97;5.43;;;;;;;;;;5035923;28;20403;-65
2023/04/06 13:57:47;;;;;;;5.60;5.20;;;;;;;;;;5035441;28;20403;-65
2023/04/06 14:00:14;;;;;;;5.83;5.30;;;;;;;;;;5035621;28;20437;-64
2023/04/06 14:02:40;;;;;;;7.33;6.73;;;;;;;;;;5035488;28;20422;-65
2023/04/06 14:05:07;;;;;;;17.23;5.40;;;;;;;;;;5035920;28;20410;-64
2023/04/06 14:07:35;;;;;;;7.50;5.37;;;;;;;;;;5035804;28;20790;-64
2023/04/06 14:10:02;;;;;;;6.60;5.50;;;;;;;;;;5035571;28;20508;-65
2023/04/06 14:12:28;;;;;;;6.13;5.63;;;;;;;;;;5035443;28;20897;-65
2023/04/06 14:14:54;;;;;;;6.00;5.40;;;;;;;;;;5035404;28;20434;-64
2023/04/06 14:17:20;;;;;;;5.97;5.37;;;;;;;;;;5035338;28;20770;-65
2023/04/06 14:19:46;;;;;;;5.00;4.70;;;;;;;;;;5034916;28;20426;-63
2023/04/06 14:22:13;;;;;;;5.70;5.30;;;;;;;;;;5035290;28;20418;-64
2023/04/06 14:24:41;;;;;;;5.90;5.40;;;;;;;;;;5035077;28;20525;-63
2023/04/06 14:27:12;;;;;;;6.03;5.60;;;;;;;;;;5017619;28;20430;-66
2023/04/06 14:29:38;;;;;;;6.10;5.60;;;;;;;;;;5035952;28;20548;-65
2023/04/06 14:32:04;;;;;;;5.77;5.30;;;;;;;;;;5035268;28;20896;-66
2023/04/06 14:34:32;;;;;;;5.00;4.70;;;;;;;;;;5034726;28;20475;-66
2023/04/06 14:36:58;;;;;;;5.57;4.70;;;;;;;;;;5035052;28;20460;-65